Latest Weather Observations for Longerenong

IDV60801

Issued at 7:32 pm EDT Saturday 16 December 2017 (issued every 30 minutes, with the page automatically refreshed every 10 minutes)

About weather observations | Map of weather stations | Latest weather observations for VIC | Other Formats
Station Details ID: 079028 Name: LONGERENONG Lat: -36.67 Lon: 142.30 Height: 133.0 m
Data from the previous 72 hours. | See also: Recent months at Longerenong
Date/Time
EDT
Temp
°C
App
Temp
°C
Dew
Point
°C
Rel
Hum
%
Delta-T
°C
Wind Press
QNH
hPa
Press
MSL
hPa
Rain since
9am
mm
Dir  Spd
km/h
Gust
km/h
Spd
kts
Gust
kts
16/07:30pm 27.3 24.0 8.2 30 10.4 SSW 15 19 8 10 - - 0.0
16/07:00pm 28.2 25.7 8.0 28 11.0 WSW 11 20 6 11 - - 0.0
16/06:30pm 28.5 25.1 7.7 27 11.3 SW 15 20 8 11 - - 0.0
16/06:00pm 28.3 25.0 8.1 28 11.0 SSW 15 20 8 11 - - 0.0
16/05:30pm 28.2 24.9 8.0 28 11.0 SSW 15 30 8 16 - - 0.0
16/05:00pm 29.3 26.3 7.8 26 11.7 SW 13 28 7 15 - - 0.0
16/04:30pm 29.1 25.7 7.7 26 11.7 SW 15 24 8 13 - - 0.0
16/04:00pm 28.6 25.5 7.2 26 11.5 SSW 13 24 7 13 - - 0.0
16/03:30pm 28.7 25.1 6.7 25 11.8 SW 15 22 8 12 - - 0.0
16/03:00pm 27.5 24.3 6.8 27 11.0 SSW 13 24 7 13 - - 0.0
16/02:30pm 27.4 24.0 7.8 29 10.6 S 15 24 8 13 - - 0.0
16/02:00pm 27.2 23.4 7.6 29 10.6 WSW 17 24 9 13 - - 0.0
16/01:30pm 26.4 22.7 7.9 31 10.0 SSW 17 33 9 18 - - 0.0
16/01:00pm 25.1 22.1 7.7 33 9.3 SW 13 24 7 13 - - 0.0
16/12:30pm 25.0 22.9 8.1 34 9.1 WSW 9 24 5 13 - - 0.0
16/12:00pm 24.6 21.7 8.1 35 8.8 SW 13 24 7 13 - - 0.0
16/11:30am 22.7 20.1 7.7 38 7.9 SW 11 24 6 13 - - 0.0
16/11:00am 22.3 19.3 7.7 39 7.7 SSW 13 20 7 11 - - 0.0
16/10:30am 21.7 19.1 7.9 41 7.2 SSW 11 17 6 9 - - 0.0
16/10:00am 21.5 18.3 8.4 43 6.9 SSW 15 20 8 11 - - 0.0
16/09:30am 20.2 17.1 8.8 48 6.0 SSW 15 22 8 12 - - 0.0
16/09:00am 18.8 16.1 9.0 53 5.2 S 13 20 7 11 - - 0.0
16/08:30am 17.7 14.7 9.1 57 4.5 SSW 15 20 8 11 - - 0.0
16/08:00am 16.0 13.9 9.9 67 3.2 SSW 11 15 6 8 - - 0.0
16/07:30am 13.5 12.4 9.9 79 1.9 SSW 6 7 3 4 - - 0.0
16/07:00am 12.4 11.8 10.5 88 1.0 SW 4 6 2 3 - - 0.0
16/06:30am 9.2 7.6 7.8 91 0.7 SW 6 6 3 3 - - 0.0
16/06:00am 7.8 6.5 6.1 89 0.8 S 2 6 1 3 - - 0.0
16/05:30am 10.4 10.2 9.0 91 0.7 CALM 0 2 0 1 - - 0.0
16/05:00am 8.8 7.3 6.8 87 0.9 S 4 6 2 3 - - 0.0
16/04:30am 9.8 8.5 7.7 87 1.0 S 4 6 2 3 - - 0.0
16/04:00am 9.9 8.2 7.5 85 1.2 S 6 7 3 4 - - 0.0
16/03:30am 11.1 10.0 8.3 83 1.4 SSE 4 6 2 3 - - 0.0
16/03:00am 11.8 10.3 9.0 83 1.4 SSE 7 9 4 5 - - 0.0
16/02:30am 12.8 11.4 9.6 81 1.6 SSE 7 9 4 5 - - 0.0
16/02:00am 13.2 11.5 10.0 81 1.7 SSE 9 9 5 5 - - 0.0
16/01:30am 13.7 12.3 9.7 77 2.1 SE 7 11 4 6 - - 0.0
16/01:00am 14.7 13.1 10.3 75 2.3 SE 9 11 5 6 - - 0.0
16/12:30am 16.0 14.1 10.5 70 2.9 SE 11 15 6 8 - - 0.0
16/12:00am 16.0 13.9 9.7 66 3.3 S 11 15 6 8 - - 0.0
 
Date/Time
EDT
Temp
°C
App
Temp
°C
Dew
Point
°C
Rel
Hum
%
Delta-T
°C
Wind Press
QNH
hPa
Press
MSL
hPa
Rain since
9am
mm
Dir  Spd
km/h
Gust
km/h
Spd
kts
Gust
kts
15/11:30pm 16.9 14.4 8.1 56 4.5 SSW 11 15 6 8 - - 0.0
15/11:00pm 18.1 15.5 7.8 51 5.3 SW 11 17 6 9 - - 0.0
15/10:30pm 19.3 16.2 7.4 46 6.1 SW 13 17 7 9 - - 0.0
15/10:00pm 20.7 16.7 6.6 40 7.2 SW 17 22 9 12 - - 0.0
15/09:30pm 19.4 16.1 4.7 38 7.1 WSW 11 15 6 8 - - 0.0
15/09:00pm 20.9 18.0 4.5 34 8.0 SW 9 13 5 7 - - 0.0
15/08:30pm 23.6 20.3 4.5 29 9.5 SW 11 17 6 9 - - 0.0
15/08:00pm 25.4 20.9 4.0 25 10.7 WSW 17 28 9 15 - - 0.0
15/07:30pm 26.8 22.1 3.3 22 11.7 W 17 24 9 13 - - 0.0
15/07:00pm 27.1 22.7 2.9 21 12.0 SW 15 26 8 14 - - 0.0
15/06:30pm 27.9 23.4 2.2 19 12.6 WSW 15 26 8 14 - - 0.0
15/06:00pm 28.8 24.2 1.3 17 13.4 WSW 15 24 8 13 - - 0.0
15/05:30pm 28.9 23.5 1.4 17 13.4 WSW 19 30 10 16 - - 0.0
15/05:00pm 29.4 24.0 1.0 16 13.8 WSW 19 32 10 17 - - 0.0
15/04:30pm 28.5 24.2 1.1 17 13.3 WSW 13 30 7 16 - - 0.0
15/04:00pm 28.2 22.9 1.7 18 12.9 WNW 19 28 10 15 - - 0.0
15/03:30pm 28.0 23.2 -0.1 16 13.3 NW 15 26 8 14 - - 0.0
15/03:00pm 26.8 23.3 3.3 22 11.7 WSW 11 24 6 13 - - 0.0
15/02:30pm 27.3 23.1 3.7 22 11.9 W 15 32 8 17 - - 0.0
15/02:00pm 26.2 22.1 4.1 24 11.1 W 15 24 8 13 - - 0.0
15/01:30pm 25.6 21.8 4.1 25 10.8 WNW 13 22 7 12 - - 0.0
15/01:00pm 24.5 21.2 4.3 27 10.1 W 11 24 6 13 - - 0.0
15/12:30pm 24.6 21.0 4.9 28 10.0 WNW 13 22 7 12 - - 0.0
15/12:00pm 22.9 20.6 5.8 33 8.7 NW 7 15 4 8 - - 0.0
15/11:30am 22.8 20.3 6.6 35 8.3 NW 9 22 5 12 - - 0.0
15/11:00am 21.6 19.4 7.8 41 7.2 NNW 9 17 5 9 - - 0.0
15/10:30am 20.6 19.0 7.9 44 6.6 W 6 15 3 8 - - 0.0
15/10:00am 18.5 16.8 7.6 49 5.6 W 6 9 3 5 - - 0.0
15/09:30am 17.8 16.1 8.4 54 4.9 WSW 7 13 4 7 - - 0.0
15/09:00am 16.6 15.0 8.6 59 4.1 SSW 7 11 4 6 - - 0.0
15/08:30am 15.8 14.4 9.5 66 3.3 SSW 7 13 4 7 - - 0.0
15/08:00am 14.1 12.9 9.7 75 2.3 SSW 6 7 3 4 - - 0.0
15/07:30am 12.9 11.8 10.1 83 1.5 S 6 6 3 3 - - 0.0
15/07:00am 9.7 9.0 8.5 92 0.6 S 2 4 1 2 - - 0.0
15/06:30am 8.4 7.0 7.2 92 0.6 S 4 4 2 2 - - 0.0
15/06:00am 7.5 5.4 6.0 90 0.7 S 6 6 3 3 - - 0.0
15/05:30am 7.6 5.9 6.1 90 0.7 S 4 6 2 3 - - 0.0
15/05:00am 9.4 8.5 7.8 90 0.8 S 2 4 1 2 - - 0.0
15/04:30am 8.3 6.6 6.1 86 1.0 S 4 4 2 2 - - 0.0
15/04:00am 9.0 7.4 6.4 84 1.2 S 4 4 2 2 - - 0.0
15/03:30am 9.8 8.3 6.9 82 1.4 S 4 6 2 3 - - 0.0
15/03:00am 10.8 9.2 7.9 82 1.4 SSE 6 6 3 3 - - 0.0
15/02:30am 11.0 9.3 7.5 79 1.7 SE 6 11 3 6 - - 0.0
15/02:00am 11.7 10.1 7.8 77 1.9 SSE 6 7 3 4 - - 0.0
15/01:30am 12.9 10.8 8.2 73 2.3 S 9 11 5 6 - - 0.0
15/01:00am 14.0 11.9 8.4 69 2.8 S 9 15 5 8 - - 0.0
15/12:30am 15.4 12.2 8.6 64 3.5 S 15 22 8 12 - - 0.0
15/12:00am 15.2 12.7 8.4 64 3.5 SSW 11 17 6 9 - - 0.0
 
Date/Time
EDT
Temp
°C
App
Temp
°C
Dew
Point
°C
Rel
Hum
%
Delta-T
°C
Wind Press
QNH
hPa
Press
MSL
hPa
Rain since
9am
mm
Dir  Spd
km/h
Gust
km/h
Spd
kts
Gust
kts
14/11:30pm 16.2 13.4 8.4 60 4.0 SSW 13 17 7 9 - - 0.0
14/11:00pm 16.5 14.0 8.0 57 4.3 SSW 11 17 6 9 - - 0.0
14/10:30pm 18.0 15.0 7.7 51 5.3 SSW 13 19 7 10 - - 0.0
14/10:00pm 18.7 15.2 7.2 47 5.8 SW 15 19 8 10 - - 0.0
14/09:30pm 19.4 16.3 7.2 45 6.2 SW 13 17 7 9 - - 0.0
14/09:00pm 20.9 17.4 7.2 41 7.1 SW 15 20 8 11 - - 0.0
14/08:30pm 22.4 18.9 7.4 38 7.8 SSW 15 20 8 11 - - 0.0
14/08:00pm 24.2 19.9 6.9 33 9.0 SW 19 24 10 13 - - 0.0
14/07:30pm 25.7 21.2 6.3 29 10.1 SW 19 30 10 16 - - 0.0
14/07:00pm 26.8 22.1 6.2 27 10.8 WSW 20 30 11 16 - - 0.0
14/06:30pm 27.1 22.4 6.0 26 11.0 SW 20 33 11 18 - - 0.0
14/06:00pm 28.1 23.1 4.4 22 12.1 WSW 20 32 11 17 - - 0.0
14/05:30pm 28.3 23.9 6.4 25 11.6 WSW 19 28 10 15 - - 0.0
14/05:00pm 28.6 24.3 7.2 26 11.5 WSW 19 33 10 18 - - 0.0
14/04:30pm 28.9 24.3 8.0 27 11.4 WSW 22 35 12 19 - - 0.0
14/04:00pm 28.1 23.3 8.9 30 10.6 SW 24 35 13 19 - - 0.0
14/03:30pm 27.7 23.2 8.6 30 10.5 SW 22 43 12 23 - - 0.0
14/03:00pm 27.4 23.5 9.3 32 10.0 SW 20 35 11 19 - - 0.0
14/02:30pm 27.7 23.7 10.4 34 9.8 SW 22 33 12 18 - - 0.0
14/02:00pm 27.2 24.1 11.7 38 8.9 SW 19 35 10 19 - - 0.0
14/01:30pm 26.4 23.4 12.1 41 8.3 WSW 19 32 10 17 - - 0.0
14/01:00pm 25.2 22.6 13.1 47 7.1 WSW 19 32 10 17 - - 0.0
14/12:30pm 24.1 20.9 13.0 50 6.5 WSW 22 33 12 18 - - 0.0
14/12:00pm 22.6 18.9 13.9 58 5.1 WSW 26 37 14 20 - - 0.0
14/11:30am 24.0 20.2 13.5 52 6.2 SW 26 35 14 19 - - 0.0
14/11:00am 22.8 19.7 13.3 55 5.5 WSW 22 33 12 18 - - 0.0
14/10:30am 20.2 16.5 13.9 67 3.7 SW 26 35 14 19 - - 0.0
14/10:00am 20.8 18.3 14.2 66 3.9 SW 20 28 11 15 - - 0.0
14/09:30am 20.4 17.5 14.1 67 3.7 WSW 22 32 12 17 - - 0.0
14/09:00am 21.0 18.7 14.2 65 4.0 SW 19 28 10 15 - - 0.0
14/08:30am 19.5 17.1 13.9 70 3.2 WSW 19 28 10 15 - - 0.0
14/08:00am 18.7 16.1 13.8 73 2.8 SW 20 28 11 15 - - 0.0
14/07:30am 18.0 15.6 13.9 77 2.4 WSW 19 24 10 13 - - 0.0
14/07:00am 17.7 16.9 14.0 79 2.1 SW 11 17 6 9 - - 0.0
14/06:30am 17.7 16.4 13.8 78 2.2 WSW 13 19 7 10 - - 0.0
14/06:00am 18.1 16.0 13.6 75 2.6 WSW 17 22 9 12 - - 0.0
14/05:30am 18.0 17.7 13.3 74 2.7 WSW 7 11 4 6 - - 0.0
14/05:00am 18.6 17.5 13.0 70 3.2 W 11 13 6 7 - - 0.0
14/04:30am 19.1 18.6 12.6 66 3.7 W 7 9 4 5 - - 0.0
14/04:00am 20.4 18.8 12.9 62 4.3 WSW 13 20 7 11 - - 0.0
14/03:30am 21.1 19.1 12.8 59 4.7 WSW 15 24 8 13 - - 0.0
14/03:00am 22.2 20.0 12.2 53 5.7 WSW 15 22 8 12 - - 0.0
14/02:30am 23.3 20.3 10.7 45 7.0 W 17 24 9 13 - - 0.0
14/02:00am 24.1 21.5 10.7 43 7.5 WSW 15 19 8 10 - - 0.0
14/01:30am 22.4 20.6 9.6 44 7.0 WNW 9 13 5 7 - - 0.0
14/01:00am 22.4 21.8 8.9 42 7.2 E 2 6 1 3 - - 0.0
14/12:30am 23.0 22.7 8.7 40 7.7 CALM 0 0 0 0 - - 0.0
14/12:00am 24.2 22.6 8.6 37 8.4 S 7 9 4 5 - - 0.0
 
Date/Time
EDT
Temp
°C
App
Temp
°C
Dew
Point
°C
Rel
Hum
%
Delta-T
°C
Wind Press
QNH
hPa
Press
MSL
hPa
Rain since
9am
mm
Dir  Spd
km/h
Gust
km/h
Spd
kts
Gust
kts
13/11:30pm 25.6 23.2 8.6 34 9.2 SSW 11 17 6 9 - - 0.0
13/11:00pm 25.6 23.0 7.7 32 9.6 WSW 11 15 6 8 - - 0.0
13/10:30pm 25.7 23.6 6.8 30 9.9 WSW 7 11 4 6 - - 0.0
13/10:00pm 26.1 23.6 6.7 29 10.2 SW 9 13 5 7 - - 0.0
13/09:30pm 27.2 24.3 6.6 27 10.9 SSW 11 17 6 9 - - 0.0
13/09:00pm 27.8 24.0 6.0 25 11.5 SSW 15 20 8 11 - - 0.0
13/08:30pm 28.6 24.4 5.5 23 12.1 SSW 17 26 9 14 - - 0.0
13/08:00pm 29.3 22.8 4.7 21 12.8 SSW 28 39 15 21 - - 0.0

Other Formats:

Comma delimited format used in spreadsheet applications
http://www.bom.gov.au/fwo/IDV60801/IDV60801.95835.axf

JavaScript Object Notation format (JSON) in row-major order
http://www.bom.gov.au/fwo/IDV60801/IDV60801.95835.json